Aviation Digital Data Service (ADDS)

Output produced by METARs form (2352 UTC 18 July 2018)
found at http://www.aviationweather.gov/adds/metars/
 
LHUD 182306Z 31011KT 9999 -RA FEW020 OVC083 19/16 Q1008
LHUD 182245Z 30011KT 9999 FEW020 OVC083 20/16 Q1009
LHUD 182145Z 30011KT CAVOK 20/16 Q1009
LHUD 182045Z 31014KT CAVOK 21/16 Q1008
LHUD 181945Z 30013KT 9999 FEW030 BKN083 21/15 Q1008
LHUD 181915Z 30013KT 9999 SCT031 BKN083 21/15 Q1008
LHUD 181845Z 31017G28KT 9999 SCT031 BKN083 22/15 Q1008
LHUD 181815Z 31019G30KT 9999 FEW030 BKN031 BKN083 22/15 Q1008